sensor_id;sensor_type;location;lat;lon;timestamp;P1;durP1;ratioP1;P2;durP2;ratioP2
57551;SDS011;43379;48.160;14.036;2022-07-29T00:01:46;8.77;;;8.07;;
57551;SDS011;43379;48.160;14.036;2022-07-29T00:04:12;8.70;;;7.90;;
57551;SDS011;43379;48.160;14.036;2022-07-29T00:06:38;9.50;;;8.80;;
57551;SDS011;43379;48.160;14.036;2022-07-29T00:09:04;9.20;;;8.20;;
57551;SDS011;43379;48.160;14.036;2022-07-29T00:11:30;8.83;;;8.23;;
57551;SDS011;43379;48.160;14.036;2022-07-29T00:13:55;8.30;;;7.70;;
57551;SDS011;43379;48.160;14.036;2022-07-29T00:16:21;8.93;;;8.33;;
57551;SDS011;43379;48.160;14.036;2022-07-29T00:18:47;9.13;;;8.37;;
57551;SDS011;43379;48.160;14.036;2022-07-29T00:21:13;8.73;;;8.03;;
57551;SDS011;43379;48.160;14.036;2022-07-29T00:23:39;9.20;;;8.50;;
57551;SDS011;43379;48.160;14.036;2022-07-29T00:26:05;9.17;;;8.50;;
57551;SDS011;43379;48.160;14.036;2022-07-29T00:28:30;9.53;;;8.70;;
57551;SDS011;43379;48.160;14.036;2022-07-29T00:30:56;9.13;;;8.30;;
57551;SDS011;43379;48.160;14.036;2022-07-29T00:33:22;9.53;;;8.73;;
57551;SDS011;43379;48.160;14.036;2022-07-29T00:35:48;10.17;;;9.37;;
57551;SDS011;43379;48.160;14.036;2022-07-29T00:38:15;8.53;;;7.93;;
57551;SDS011;43379;48.160;14.036;2022-07-29T00:40:45;10.03;;;9.03;;
57551;SDS011;43379;48.160;14.036;2022-07-29T00:43:12;9.27;;;8.57;;
57551;SDS011;43379;48.160;14.036;2022-07-29T00:45:39;9.17;;;8.50;;
57551;SDS011;43379;48.160;14.036;2022-07-29T00:48:05;10.20;;;8.53;;
57551;SDS011;43379;48.160;14.036;2022-07-29T00:50:33;8.90;;;8.20;;
57551;SDS011;43379;48.160;14.036;2022-07-29T00:52:59;9.63;;;8.70;;
57551;SDS011;43379;48.160;14.036;2022-07-29T00:55:26;10.10;;;9.23;;
57551;SDS011;43379;48.160;14.036;2022-07-29T00:57:52;9.07;;;8.37;;
57551;SDS011;43379;48.160;14.036;2022-07-29T01:00:22;10.13;;;9.13;;
57551;SDS011;43379;48.160;14.036;2022-07-29T01:02:50;10.43;;;9.43;;
57551;SDS011;43379;48.160;14.036;2022-07-29T01:05:17;10.50;;;9.47;;
57551;SDS011;43379;48.160;14.036;2022-07-29T01:07:45;9.47;;;8.73;;
57551;SDS011;43379;48.160;14.036;2022-07-29T01:10:13;10.60;;;9.63;;
57551;SDS011;43379;48.160;14.036;2022-07-29T01:12:40;9.47;;;8.77;;
57551;SDS011;43379;48.160;14.036;2022-07-29T01:15:09;9.20;;;8.57;;
57551;SDS011;43379;48.160;14.036;2022-07-29T01:26:35;9.47;;;8.67;;
57551;SDS011;43379;48.160;14.036;2022-07-29T01:29:32;9.97;;;8.93;;
57551;SDS011;43379;48.160;14.036;2022-07-29T01:32:13;8.10;;;7.50;;
57551;SDS011;43379;48.160;14.036;2022-07-29T01:35:01;8.73;;;8.03;;
57551;SDS011;43379;48.160;14.036;2022-07-29T01:38:00;9.03;;;8.23;;
57551;SDS011;43379;48.160;14.036;2022-07-29T01:40:34;9.27;;;8.43;;
57551;SDS011;43379;48.160;14.036;2022-07-29T01:43:23;9.23;;;8.53;;
57551;SDS011;43379;48.160;14.036;2022-07-29T01:46:02;8.80;;;7.90;;
57551;SDS011;43379;48.160;14.036;2022-07-29T01:48:41;9.57;;;8.57;;
57551;SDS011;43379;48.160;14.036;2022-07-29T01:51:23;9.40;;;8.70;;
57551;SDS011;43379;48.160;14.036;2022-07-29T01:56:51;9.20;;;8.50;;
57551;SDS011;43379;48.160;14.036;2022-07-29T01:59:20;9.87;;;9.07;;
57551;SDS011;43379;48.160;14.036;2022-07-29T02:01:46;9.20;;;8.50;;
57551;SDS011;43379;48.160;14.036;2022-07-29T02:04:13;8.50;;;7.70;;
57551;SDS011;43379;48.160;14.036;2022-07-29T02:06:41;8.90;;;8.17;;
57551;SDS011;43379;48.160;14.036;2022-07-29T02:09:09;8.23;;;7.67;;
57551;SDS011;43379;48.160;14.036;2022-07-29T02:11:36;8.53;;;7.93;;
57551;SDS011;43379;48.160;14.036;2022-07-29T02:14:04;9.67;;;8.90;;
57551;SDS011;43379;48.160;14.036;2022-07-29T02:16:30;8.93;;;8.03;;
57551;SDS011;43379;48.160;14.036;2022-07-29T02:18:58;10.10;;;9.20;;
57551;SDS011;43379;48.160;14.036;2022-07-29T02:21:26;9.53;;;8.83;;
57551;SDS011;43379;48.160;14.036;2022-07-29T02:23:55;9.67;;;8.87;;
57551;SDS011;43379;48.160;14.036;2022-07-29T02:26:23;10.80;;;9.80;;
57551;SDS011;43379;48.160;14.036;2022-07-29T02:28:51;8.93;;;8.23;;
57551;SDS011;43379;48.160;14.036;2022-07-29T02:33:56;9.10;;;8.40;;
57551;SDS011;43379;48.160;14.036;2022-07-29T02:36:23;10.17;;;9.30;;
57551;SDS011;43379;48.160;14.036;2022-07-29T02:38:51;9.93;;;9.23;;
57551;SDS011;43379;48.160;14.036;2022-07-29T02:41:23;9.67;;;8.93;;
57551;SDS011;43379;48.160;14.036;2022-07-29T02:43:53;9.20;;;8.40;;
57551;SDS011;43379;48.160;14.036;2022-07-29T02:46:24;9.77;;;8.97;;
57551;SDS011;43379;48.160;14.036;2022-07-29T02:49:08;12.50;;;11.60;;
57551;SDS011;43379;48.160;14.036;2022-07-29T02:52:03;10.50;;;9.67;;
57551;SDS011;43379;48.160;14.036;2022-07-29T02:54:41;11.80;;;10.90;;
57551;SDS011;43379;48.160;14.036;2022-07-29T02:57:14;11.30;;;10.50;;
57551;SDS011;43379;48.160;14.036;2022-07-29T02:59:45;12.10;;;11.00;;
57551;SDS011;43379;48.160;14.036;2022-07-29T03:02:14;10.93;;;10.13;;
57551;SDS011;43379;48.160;14.036;2022-07-29T03:04:42;11.00;;;10.20;;
57551;SDS011;43379;48.160;14.036;2022-07-29T03:07:10;11.00;;;10.10;;
57551;SDS011;43379;48.160;14.036;2022-07-29T03:09:38;12.00;;;10.90;;
57551;SDS011;43379;48.160;14.036;2022-07-29T03:12:06;12.63;;;10.90;;
57551;SDS011;43379;48.160;14.036;2022-07-29T03:14:33;11.57;;;10.77;;
57551;SDS011;43379;48.160;14.036;2022-07-29T03:17:00;10.20;;;9.40;;
57551;SDS011;43379;48.160;14.036;2022-07-29T03:19:26;11.63;;;10.73;;
57551;SDS011;43379;48.160;14.036;2022-07-29T03:21:52;12.20;;;11.10;;
57551;SDS011;43379;48.160;14.036;2022-07-29T03:24:24;11.10;;;10.17;;
57551;SDS011;43379;48.160;14.036;2022-07-29T03:26:51;11.30;;;10.60;;
57551;SDS011;43379;48.160;14.036;2022-07-29T03:29:16;10.53;;;9.77;;
57551;SDS011;43379;48.160;14.036;2022-07-29T03:31:42;11.13;;;10.20;;
57551;SDS011;43379;48.160;14.036;2022-07-29T03:34:08;11.23;;;10.43;;
57551;SDS011;43379;48.160;14.036;2022-07-29T03:36:33;10.60;;;9.83;;
57551;SDS011;43379;48.160;14.036;2022-07-29T03:38:59;12.23;;;11.43;;
57551;SDS011;43379;48.160;14.036;2022-07-29T03:41:27;12.10;;;11.30;;
57551;SDS011;43379;48.160;14.036;2022-07-29T03:43:53;11.47;;;10.57;;
57551;SDS011;43379;48.160;14.036;2022-07-29T03:46:20;11.80;;;10.80;;
57551;SDS011;43379;48.160;14.036;2022-07-29T03:48:48;10.47;;;9.60;;
57551;SDS011;43379;48.160;14.036;2022-07-29T03:51:18;11.50;;;10.30;;
57551;SDS011;43379;48.160;14.036;2022-07-29T03:53:44;11.30;;;10.40;;
57551;SDS011;43379;48.160;14.036;2022-07-29T03:56:09;11.17;;;10.37;;
57551;SDS011;43379;48.160;14.036;2022-07-29T03:58:40;11.30;;;10.50;;
57551;SDS011;43379;48.160;14.036;2022-07-29T04:01:06;11.70;;;10.80;;
57551;SDS011;43379;48.160;14.036;2022-07-29T04:03:33;11.90;;;10.80;;
57551;SDS011;43379;48.160;14.036;2022-07-29T04:06:06;11.77;;;10.80;;
57551;SDS011;43379;48.160;14.036;2022-07-29T04:08:32;12.63;;;11.47;;
57551;SDS011;43379;48.160;14.036;2022-07-29T04:10:59;12.37;;;11.53;;
57551;SDS011;43379;48.160;14.036;2022-07-29T04:13:26;12.83;;;11.77;;
57551;SDS011;43379;48.160;14.036;2022-07-29T04:15:51;11.30;;;10.47;;
57551;SDS011;43379;48.160;14.036;2022-07-29T04:18:17;13.17;;;12.07;;
57551;SDS011;43379;48.160;14.036;2022-07-29T04:20:43;13.10;;;12.10;;
57551;SDS011;43379;48.160;14.036;2022-07-29T04:23:09;12.90;;;12.00;;
57551;SDS011;43379;48.160;14.036;2022-07-29T04:25:38;12.67;;;11.77;;
57551;SDS011;43379;48.160;14.036;2022-07-29T04:28:04;13.67;;;12.47;;
57551;SDS011;43379;48.160;14.036;2022-07-29T04:30:31;12.80;;;11.83;;
57551;SDS011;43379;48.160;14.036;2022-07-29T04:32:58;12.23;;;11.33;;
57551;SDS011;43379;48.160;14.036;2022-07-29T04:35:26;14.47;;;13.17;;
57551;SDS011;43379;48.160;14.036;2022-07-29T04:37:52;13.70;;;12.60;;
57551;SDS011;43379;48.160;14.036;2022-07-29T04:40:18;13.40;;;12.40;;
57551;SDS011;43379;48.160;14.036;2022-07-29T04:42:43;13.50;;;12.50;;
57551;SDS011;43379;48.160;14.036;2022-07-29T04:45:09;14.93;;;13.70;;
57551;SDS011;43379;48.160;14.036;2022-07-29T04:47:35;12.73;;;11.83;;
57551;SDS011;43379;48.160;14.036;2022-07-29T04:50:01;12.77;;;11.83;;
57551;SDS011;43379;48.160;14.036;2022-07-29T04:52:27;13.57;;;12.60;;
57551;SDS011;43379;48.160;14.036;2022-07-29T04:54:52;12.27;;;11.37;;
57551;SDS011;43379;48.160;14.036;2022-07-29T04:57:18;13.30;;;12.10;;
57551;SDS011;43379;48.160;14.036;2022-07-29T04:59:43;14.10;;;12.20;;
57551;SDS011;43379;48.160;14.036;2022-07-29T05:02:09;13.17;;;12.27;;
57551;SDS011;43379;48.160;14.036;2022-07-29T05:04:35;12.23;;;11.30;;
57551;SDS011;43379;48.160;14.036;2022-07-29T05:07:01;13.77;;;12.60;;
57551;SDS011;43379;48.160;14.036;2022-07-29T05:09:26;13.40;;;12.10;;
57551;SDS011;43379;48.160;14.036;2022-07-29T05:11:52;12.73;;;11.63;;
57551;SDS011;43379;48.160;14.036;2022-07-29T05:14:18;12.17;;;11.03;;
57551;SDS011;43379;48.160;14.036;2022-07-29T05:16:43;12.97;;;11.97;;
57551;SDS011;43379;48.160;14.036;2022-07-29T05:19:09;12.80;;;11.40;;
57551;SDS011;43379;48.160;14.036;2022-07-29T05:21:35;13.50;;;12.13;;
57551;SDS011;43379;48.160;14.036;2022-07-29T05:24:01;12.77;;;11.77;;
57551;SDS011;43379;48.160;14.036;2022-07-29T05:26:26;12.70;;;11.70;;
57551;SDS011;43379;48.160;14.036;2022-07-29T05:28:52;14.60;;;12.07;;
57551;SDS011;43379;48.160;14.036;2022-07-29T05:31:19;13.60;;;12.40;;
57551;SDS011;43379;48.160;14.036;2022-07-29T05:33:45;13.20;;;12.20;;
57551;SDS011;43379;48.160;14.036;2022-07-29T05:36:10;13.23;;;12.03;;
57551;SDS011;43379;48.160;14.036;2022-07-29T05:38:36;15.20;;;13.17;;
57551;SDS011;43379;48.160;14.036;2022-07-29T05:41:02;13.33;;;12.43;;
57551;SDS011;43379;48.160;14.036;2022-07-29T05:43:29;13.90;;;12.83;;
57551;SDS011;43379;48.160;14.036;2022-07-29T05:45:54;14.17;;;12.97;;
57551;SDS011;43379;48.160;14.036;2022-07-29T05:48:21;15.20;;;13.70;;
57551;SDS011;43379;48.160;14.036;2022-07-29T05:50:46;13.77;;;12.77;;
57551;SDS011;43379;48.160;14.036;2022-07-29T05:53:12;14.40;;;13.10;;
57551;SDS011;43379;48.160;14.036;2022-07-29T05:55:37;13.87;;;12.93;;
57551;SDS011;43379;48.160;14.036;2022-07-29T05:58:03;13.70;;;12.60;;
57551;SDS011;43379;48.160;14.036;2022-07-29T06:00:29;14.93;;;13.73;;
57551;SDS011;43379;48.160;14.036;2022-07-29T06:02:55;12.93;;;11.63;;
57551;SDS011;43379;48.160;14.036;2022-07-29T06:05:21;14.20;;;12.90;;
57551;SDS011;43379;48.160;14.036;2022-07-29T06:07:47;13.50;;;12.10;;
57551;SDS011;43379;48.160;14.036;2022-07-29T06:10:13;12.70;;;11.70;;
57551;SDS011;43379;48.160;14.036;2022-07-29T06:12:39;12.67;;;11.67;;
57551;SDS011;43379;48.160;14.036;2022-07-29T06:15:05;12.07;;;11.13;;
57551;SDS011;43379;48.160;14.036;2022-07-29T06:17:32;11.93;;;11.03;;
57551;SDS011;43379;48.160;14.036;2022-07-29T06:19:57;12.00;;;10.90;;
57551;SDS011;43379;48.160;14.036;2022-07-29T06:22:23;12.30;;;11.10;;
57551;SDS011;43379;48.160;14.036;2022-07-29T06:24:48;11.50;;;10.60;;
57551;SDS011;43379;48.160;14.036;2022-07-29T06:27:14;11.00;;;9.87;;
57551;SDS011;43379;48.160;14.036;2022-07-29T06:29:41;11.23;;;9.90;;
57551;SDS011;43379;48.160;14.036;2022-07-29T06:32:07;10.50;;;9.60;;
57551;SDS011;43379;48.160;14.036;2022-07-29T06:34:34;9.53;;;8.73;;
57551;SDS011;43379;48.160;14.036;2022-07-29T06:37:00;11.73;;;10.13;;
57551;SDS011;43379;48.160;14.036;2022-07-29T06:39:30;10.93;;;10.10;;
57551;SDS011;43379;48.160;14.036;2022-07-29T06:41:56;10.03;;;9.23;;
57551;SDS011;43379;48.160;14.036;2022-07-29T06:44:22;11.33;;;10.30;;
57551;SDS011;43379;48.160;14.036;2022-07-29T06:46:47;13.40;;;12.10;;
57551;SDS011;43379;48.160;14.036;2022-07-29T06:49:15;12.30;;;11.10;;
57551;SDS011;43379;48.160;14.036;2022-07-29T06:51:41;11.90;;;11.03;;
57551;SDS011;43379;48.160;14.036;2022-07-29T06:54:07;14.27;;;12.90;;
57551;SDS011;43379;48.160;14.036;2022-07-29T06:56:33;12.50;;;11.40;;
57551;SDS011;43379;48.160;14.036;2022-07-29T06:59:03;13.00;;;11.80;;
57551;SDS011;43379;48.160;14.036;2022-07-29T07:01:29;13.53;;;12.13;;
57551;SDS011;43379;48.160;14.036;2022-07-29T07:03:55;13.87;;;11.93;;
57551;SDS011;43379;48.160;14.036;2022-07-29T07:06:21;12.50;;;11.40;;
57551;SDS011;43379;48.160;14.036;2022-07-29T07:08:47;13.00;;;11.83;;
57551;SDS011;43379;48.160;14.036;2022-07-29T07:11:12;12.70;;;11.23;;
57551;SDS011;43379;48.160;14.036;2022-07-29T07:13:38;13.83;;;12.50;;
57551;SDS011;43379;48.160;14.036;2022-07-29T07:16:04;13.87;;;12.67;;
57551;SDS011;43379;48.160;14.036;2022-07-29T07:18:29;14.10;;;13.00;;
57551;SDS011;43379;48.160;14.036;2022-07-29T07:20:55;14.77;;;13.57;;
57551;SDS011;43379;48.160;14.036;2022-07-29T07:23:22;14.93;;;13.57;;
57551;SDS011;43379;48.160;14.036;2022-07-29T07:25:47;14.33;;;13.23;;
57551;SDS011;43379;48.160;14.036;2022-07-29T07:28:13;14.20;;;12.90;;
57551;SDS011;43379;48.160;14.036;2022-07-29T07:30:39;14.87;;;13.53;;
57551;SDS011;43379;48.160;14.036;2022-07-29T07:33:04;13.93;;;12.00;;
57551;SDS011;43379;48.160;14.036;2022-07-29T07:35:30;12.70;;;11.40;;
57551;SDS011;43379;48.160;14.036;2022-07-29T07:37:56;12.80;;;11.60;;
57551;SDS011;43379;48.160;14.036;2022-07-29T07:40:22;13.10;;;11.90;;
57551;SDS011;43379;48.160;14.036;2022-07-29T07:42:48;13.67;;;12.47;;
57551;SDS011;43379;48.160;14.036;2022-07-29T07:45:14;12.97;;;11.30;;
57551;SDS011;43379;48.160;14.036;2022-07-29T07:47:40;12.93;;;11.53;;
57551;SDS011;43379;48.160;14.036;2022-07-29T07:50:07;14.40;;;12.13;;
57551;SDS011;43379;48.160;14.036;2022-07-29T07:52:37;12.90;;;11.60;;
57551;SDS011;43379;48.160;14.036;2022-07-29T07:55:14;12.13;;;11.23;;
57551;SDS011;43379;48.160;14.036;2022-07-29T07:57:40;13.20;;;11.87;;
57551;SDS011;43379;48.160;14.036;2022-07-29T08:00:06;12.90;;;11.70;;
57551;SDS011;43379;48.160;14.036;2022-07-29T08:02:32;14.93;;;13.47;;
57551;SDS011;43379;48.160;14.036;2022-07-29T08:04:58;12.37;;;11.23;;
57551;SDS011;43379;48.160;14.036;2022-07-29T08:07:24;13.33;;;12.13;;
57551;SDS011;43379;48.160;14.036;2022-07-29T08:09:50;12.43;;;11.27;;
57551;SDS011;43379;48.160;14.036;2022-07-29T08:12:16;12.33;;;11.03;;
57551;SDS011;43379;48.160;14.036;2022-07-29T08:14:41;12.33;;;11.00;;
57551;SDS011;43379;48.160;14.036;2022-07-29T08:17:07;11.90;;;11.00;;
57551;SDS011;43379;48.160;14.036;2022-07-29T08:19:33;12.20;;;10.40;;
57551;SDS011;43379;48.160;14.036;2022-07-29T08:21:58;16.00;;;11.43;;
57551;SDS011;43379;48.160;14.036;2022-07-29T08:24:24;10.40;;;9.50;;
57551;SDS011;43379;48.160;14.036;2022-07-29T08:27:11;11.00;;;10.10;;
57551;SDS011;43379;48.160;14.036;2022-07-29T08:29:38;11.80;;;10.00;;
57551;SDS011;43379;48.160;14.036;2022-07-29T08:32:04;10.27;;;9.47;;
57551;SDS011;43379;48.160;14.036;2022-07-29T08:34:30;12.67;;;9.87;;
57551;SDS011;43379;48.160;14.036;2022-07-29T08:36:57;10.00;;;9.00;;
57551;SDS011;43379;48.160;14.036;2022-07-29T08:39:23;10.00;;;9.17;;
57551;SDS011;43379;48.160;14.036;2022-07-29T08:41:49;9.83;;;8.97;;
57551;SDS011;43379;48.160;14.036;2022-07-29T08:44:18;8.60;;;7.90;;
57551;SDS011;43379;48.160;14.036;2022-07-29T08:46:46;9.27;;;8.40;;
57551;SDS011;43379;48.160;14.036;2022-07-29T08:49:13;9.93;;;9.17;;
57551;SDS011;43379;48.160;14.036;2022-07-29T08:51:39;9.93;;;8.93;;
57551;SDS011;43379;48.160;14.036;2022-07-29T08:54:05;9.63;;;8.67;;
57551;SDS011;43379;48.160;14.036;2022-07-29T08:56:33;14.67;;;10.10;;
57551;SDS011;43379;48.160;14.036;2022-07-29T08:58:59;10.20;;;9.30;;
57551;SDS011;43379;48.160;14.036;2022-07-29T09:01:29;9.80;;;8.97;;
57551;SDS011;43379;48.160;14.036;2022-07-29T09:03:58;9.43;;;8.43;;
57551;SDS011;43379;48.160;14.036;2022-07-29T09:06:26;8.13;;;7.30;;
57551;SDS011;43379;48.160;14.036;2022-07-29T09:08:59;7.97;;;7.30;;
57551;SDS011;43379;48.160;14.036;2022-07-29T09:11:25;8.77;;;8.07;;
57551;SDS011;43379;48.160;14.036;2022-07-29T09:13:52;8.43;;;7.67;;
57551;SDS011;43379;48.160;14.036;2022-07-29T09:16:17;10.23;;;7.80;;
57551;SDS011;43379;48.160;14.036;2022-07-29T09:18:44;7.63;;;6.90;;
57551;SDS011;43379;48.160;14.036;2022-07-29T09:21:12;8.47;;;7.67;;
57551;SDS011;43379;48.160;14.036;2022-07-29T09:26:37;10.00;;;7.93;;
57551;SDS011;43379;48.160;14.036;2022-07-29T09:29:17;10.57;;;8.60;;
57551;SDS011;43379;48.160;14.036;2022-07-29T09:31:44;10.17;;;7.70;;
57551;SDS011;43379;48.160;14.036;2022-07-29T09:34:16;8.57;;;7.33;;
57551;SDS011;43379;48.160;14.036;2022-07-29T09:36:53;10.37;;;7.50;;
57551;SDS011;43379;48.160;14.036;2022-07-29T09:39:30;16.60;;;8.67;;
57551;SDS011;43379;48.160;14.036;2022-07-29T09:41:58;15.47;;;7.97;;
57551;SDS011;43379;48.160;14.036;2022-07-29T09:44:25;9.87;;;7.57;;
57551;SDS011;43379;48.160;14.036;2022-07-29T09:49:20;12.70;;;7.50;;
57551;SDS011;43379;48.160;14.036;2022-07-29T09:51:45;10.20;;;7.90;;
57551;SDS011;43379;48.160;14.036;2022-07-29T09:54:25;8.13;;;7.33;;
57551;SDS011;43379;48.160;14.036;2022-07-29T09:56:52;9.70;;;7.60;;
57551;SDS011;43379;48.160;14.036;2022-07-29T09:59:18;7.60;;;6.90;;
57551;SDS011;43379;48.160;14.036;2022-07-29T10:01:45;9.87;;;7.10;;
57551;SDS011;43379;48.160;14.036;2022-07-29T10:04:11;10.57;;;7.30;;
57551;SDS011;43379;48.160;14.036;2022-07-29T10:06:55;7.40;;;6.73;;
57551;SDS011;43379;48.160;14.036;2022-07-29T10:09:22;7.80;;;6.73;;
57551;SDS011;43379;48.160;14.036;2022-07-29T10:14:34;7.30;;;6.70;;
57551;SDS011;43379;48.160;14.036;2022-07-29T10:17:01;7.97;;;7.27;;
57551;SDS011;43379;48.160;14.036;2022-07-29T10:19:28;8.20;;;7.37;;
57551;SDS011;43379;48.160;14.036;2022-07-29T10:21:56;7.70;;;6.77;;
57551;SDS011;43379;48.160;14.036;2022-07-29T10:24:28;11.93;;;7.67;;
57551;SDS011;43379;48.160;14.036;2022-07-29T10:26:55;7.33;;;5.93;;
57551;SDS011;43379;48.160;14.036;2022-07-29T10:29:22;7.20;;;5.03;;
57551;SDS011;43379;48.160;14.036;2022-07-29T10:34:36;5.83;;;4.87;;
57551;SDS011;43379;48.160;14.036;2022-07-29T10:37:28;4.60;;;4.20;;
57551;SDS011;43379;48.160;14.036;2022-07-29T10:40:20;5.80;;;4.07;;
57551;SDS011;43379;48.160;14.036;2022-07-29T10:43:23;5.07;;;4.37;;
57551;SDS011;43379;48.160;14.036;2022-07-29T10:45:54;5.37;;;3.83;;
57551;SDS011;43379;48.160;14.036;2022-07-29T10:48:22;6.10;;;4.83;;
57551;SDS011;43379;48.160;14.036;2022-07-29T10:50:55;6.60;;;4.37;;
57551;SDS011;43379;48.160;14.036;2022-07-29T10:53:24;5.83;;;4.27;;
57551;SDS011;43379;48.160;14.036;2022-07-29T10:56:22;4.53;;;4.10;;
57551;SDS011;43379;48.160;14.036;2022-07-29T11:01:43;6.60;;;4.60;;
57551;SDS011;43379;48.160;14.036;2022-07-29T11:04:09;5.03;;;4.60;;
57551;SDS011;43379;48.160;14.036;2022-07-29T11:09:25;4.47;;;4.10;;
57551;SDS011;43379;48.160;14.036;2022-07-29T11:11:51;4.20;;;3.80;;
57551;SDS011;43379;48.160;14.036;2022-07-29T11:15:03;5.17;;;4.43;;
57551;SDS011;43379;48.160;14.036;2022-07-29T11:17:18;6.43;;;3.50;;
57551;SDS011;43379;48.160;14.036;2022-07-29T11:19:44;4.60;;;4.17;;
57551;SDS011;43379;48.160;14.036;2022-07-29T11:22:10;5.33;;;3.87;;
57551;SDS011;43379;48.160;14.036;2022-07-29T11:25:17;4.70;;;4.30;;
57551;SDS011;43379;48.160;14.036;2022-07-29T11:27:46;4.57;;;3.87;;
57551;SDS011;43379;48.160;14.036;2022-07-29T11:30:12;4.40;;;4.10;;
57551;SDS011;43379;48.160;14.036;2022-07-29T11:32:39;5.30;;;4.80;;
57551;SDS011;43379;48.160;14.036;2022-07-29T11:35:22;4.90;;;4.13;;
57551;SDS011;43379;48.160;14.036;2022-07-29T11:43:50;4.70;;;4.30;;
57551;SDS011;43379;48.160;14.036;2022-07-29T11:49:23;4.23;;;3.93;;
57551;SDS011;43379;48.160;14.036;2022-07-29T11:51:50;5.23;;;4.30;;
57551;SDS011;43379;48.160;14.036;2022-07-29T11:54:24;6.90;;;4.37;;
57551;SDS011;43379;48.160;14.036;2022-07-29T11:56:52;4.90;;;4.30;;
57551;SDS011;43379;48.160;14.036;2022-07-29T11:59:17;5.43;;;4.03;;
57551;SDS011;43379;48.160;14.036;2022-07-29T12:01:51;4.90;;;4.50;;
57551;SDS011;43379;48.160;14.036;2022-07-29T12:04:20;5.20;;;4.40;;
57551;SDS011;43379;48.160;14.036;2022-07-29T12:06:51;4.97;;;4.47;;
57551;SDS011;43379;48.160;14.036;2022-07-29T12:09:20;4.30;;;4.00;;
57551;SDS011;43379;48.160;14.036;2022-07-29T12:11:47;4.43;;;4.00;;
57551;SDS011;43379;48.160;14.036;2022-07-29T12:14:26;4.63;;;4.17;;
57551;SDS011;43379;48.160;14.036;2022-07-29T12:16:55;4.53;;;4.13;;
57551;SDS011;43379;48.160;14.036;2022-07-29T12:19:22;7.80;;;5.60;;
57551;SDS011;43379;48.160;14.036;2022-07-29T12:21:52;4.77;;;4.37;;
57551;SDS011;43379;48.160;14.036;2022-07-29T12:24:19;4.57;;;4.17;;
57551;SDS011;43379;48.160;14.036;2022-07-29T12:26:49;4.90;;;4.40;;
57551;SDS011;43379;48.160;14.036;2022-07-29T12:29:22;4.60;;;4.20;;
57551;SDS011;43379;48.160;14.036;2022-07-29T12:31:51;4.33;;;3.93;;
57551;SDS011;43379;48.160;14.036;2022-07-29T12:34:19;5.60;;;4.40;;
57551;SDS011;43379;48.160;14.036;2022-07-29T12:36:47;4.70;;;4.20;;
57551;SDS011;43379;48.160;14.036;2022-07-29T12:39:15;5.90;;;3.90;;
57551;SDS011;43379;48.160;14.036;2022-07-29T12:41:42;5.50;;;4.23;;
57551;SDS011;43379;48.160;14.036;2022-07-29T12:44:09;5.43;;;4.30;;
57551;SDS011;43379;48.160;14.036;2022-07-29T12:46:34;4.30;;;3.90;;
57551;SDS011;43379;48.160;14.036;2022-07-29T12:49:00;6.17;;;4.00;;
57551;SDS011;43379;48.160;14.036;2022-07-29T12:54:03;4.00;;;3.70;;
57551;SDS011;43379;48.160;14.036;2022-07-29T12:56:31;3.93;;;3.63;;
57551;SDS011;43379;48.160;14.036;2022-07-29T12:58:56;4.67;;;4.27;;
57551;SDS011;43379;48.160;14.036;2022-07-29T13:01:22;5.67;;;4.33;;
57551;SDS011;43379;48.160;14.036;2022-07-29T13:14:04;5.10;;;4.47;;
57551;SDS011;43379;48.160;14.036;2022-07-29T13:16:33;4.80;;;4.40;;
57551;SDS011;43379;48.160;14.036;2022-07-29T13:19:03;3.70;;;3.40;;
57551;SDS011;43379;48.160;14.036;2022-07-29T13:21:36;5.00;;;4.60;;
57551;SDS011;43379;48.160;14.036;2022-07-29T13:24:03;4.40;;;4.00;;
57551;SDS011;43379;48.160;14.036;2022-07-29T13:26:32;4.37;;;3.97;;
57551;SDS011;43379;48.160;14.036;2022-07-29T13:28:59;4.67;;;4.33;;
57551;SDS011;43379;48.160;14.036;2022-07-29T13:31:25;5.23;;;4.80;;
57551;SDS011;43379;48.160;14.036;2022-07-29T13:33:50;4.57;;;4.20;;
57551;SDS011;43379;48.160;14.036;2022-07-29T13:36:16;5.83;;;4.80;;
57551;SDS011;43379;48.160;14.036;2022-07-29T13:38:42;4.40;;;4.00;;
57551;SDS011;43379;48.160;14.036;2022-07-29T13:41:08;5.17;;;4.67;;
57551;SDS011;43379;48.160;14.036;2022-07-29T13:43:34;4.43;;;4.03;;
57551;SDS011;43379;48.160;14.036;2022-07-29T13:46:00;4.70;;;3.90;;
57551;SDS011;43379;48.160;14.036;2022-07-29T13:48:26;4.50;;;4.20;;
57551;SDS011;43379;48.160;14.036;2022-07-29T13:50:52;4.00;;;3.70;;
57551;SDS011;43379;48.160;14.036;2022-07-29T13:53:17;4.30;;;3.90;;
57551;SDS011;43379;48.160;14.036;2022-07-29T13:55:43;4.17;;;3.70;;
57551;SDS011;43379;48.160;14.036;2022-07-29T13:58:09;4.40;;;4.00;;
57551;SDS011;43379;48.160;14.036;2022-07-29T14:00:35;4.43;;;4.03;;
57551;SDS011;43379;48.160;14.036;2022-07-29T14:03:00;3.90;;;3.60;;
57551;SDS011;43379;48.160;14.036;2022-07-29T14:05:26;4.80;;;3.70;;
57551;SDS011;43379;48.160;14.036;2022-07-29T14:07:52;4.13;;;3.83;;
57551;SDS011;43379;48.160;14.036;2022-07-29T14:10:17;4.47;;;4.07;;
57551;SDS011;43379;48.160;14.036;2022-07-29T14:12:43;5.20;;;3.67;;
57551;SDS011;43379;48.160;14.036;2022-07-29T14:15:09;4.13;;;3.83;;
57551;SDS011;43379;48.160;14.036;2022-07-29T14:17:34;4.17;;;3.87;;
57551;SDS011;43379;48.160;14.036;2022-07-29T14:20:00;5.77;;;5.37;;
57551;SDS011;43379;48.160;14.036;2022-07-29T14:22:26;5.47;;;4.57;;
57551;SDS011;43379;48.160;14.036;2022-07-29T14:24:51;4.90;;;4.50;;
57551;SDS011;43379;48.160;14.036;2022-07-29T14:27:17;4.30;;;4.00;;
57551;SDS011;43379;48.160;14.036;2022-07-29T14:29:43;5.30;;;4.80;;
57551;SDS011;43379;48.160;14.036;2022-07-29T14:32:09;5.60;;;4.20;;
57551;SDS011;43379;48.160;14.036;2022-07-29T14:34:35;6.17;;;5.57;;
57551;SDS011;43379;48.160;14.036;2022-07-29T14:37:02;4.50;;;4.10;;
57551;SDS011;43379;48.160;14.036;2022-07-29T14:39:30;4.67;;;4.20;;
57551;SDS011;43379;48.160;14.036;2022-07-29T14:41:56;4.93;;;4.50;;
57551;SDS011;43379;48.160;14.036;2022-07-29T14:44:22;4.63;;;4.27;;
57551;SDS011;43379;48.160;14.036;2022-07-29T14:46:48;4.90;;;4.43;;
57551;SDS011;43379;48.160;14.036;2022-07-29T14:49:14;5.10;;;4.70;;
57551;SDS011;43379;48.160;14.036;2022-07-29T14:51:40;5.00;;;4.60;;
57551;SDS011;43379;48.160;14.036;2022-07-29T14:54:06;5.10;;;4.60;;
57551;SDS011;43379;48.160;14.036;2022-07-29T14:56:32;4.53;;;4.13;;
57551;SDS011;43379;48.160;14.036;2022-07-29T14:58:58;4.40;;;4.10;;
57551;SDS011;43379;48.160;14.036;2022-07-29T15:01:24;5.27;;;4.77;;
57551;SDS011;43379;48.160;14.036;2022-07-29T15:03:50;4.37;;;3.97;;
57551;SDS011;43379;48.160;14.036;2022-07-29T15:06:16;5.80;;;4.50;;
57551;SDS011;43379;48.160;14.036;2022-07-29T15:08:42;4.33;;;4.03;;
57551;SDS011;43379;48.160;14.036;2022-07-29T15:11:08;4.10;;;3.80;;
57551;SDS011;43379;48.160;14.036;2022-07-29T15:13:33;5.97;;;4.57;;
57551;SDS011;43379;48.160;14.036;2022-07-29T15:15:59;4.73;;;4.33;;
57551;SDS011;43379;48.160;14.036;2022-07-29T15:18:25;4.30;;;3.90;;
57551;SDS011;43379;48.160;14.036;2022-07-29T15:20:51;4.53;;;4.20;;
57551;SDS011;43379;48.160;14.036;2022-07-29T15:23:16;4.67;;;4.00;;